Check out our new PWSWeather beta!
PWSweather.com
Personal Weather Stations
Station Observations
KNCGREEN1000
Bell Orchard Drive, Greensboro, NC 27455

Bell Orchard DriveGreensboro, NC 27455

Lat: 36.132, Lon: -79.8

Elevation: 876

Station Type: Acurite Atlas

Http://www.gilhutcheson.com

High Low Average
Temperature 52.2°F11.2°C 41.1°F5.1°C 45.6°F7.6°C
Dew Point 45.1°F7.3°C 38.7°F3.7°C 41.5°F5.3°C
Winds 7.0 mph 11.3 kmh Calm Calm 3.0 mph ENE4.8 kmh ENE
Wind Gusts -- -- --
Humidity 95% 70% 86%
Pressure 30.33 in1027.1 mb 30.07 in1018.3 mb -
Precipitation 0.17 in4.3 mm - -
Hour Temp Dew Point Humidity Winds Wind Gusts Pressure Precip Precip Rate Daily Precip Total
12:02 AM 42.2°F5.7°C 39.2°F4.0°C 89% 1.0 mph ESE1.6 kmh ESE -- 30.33 in1027.1 mb 0.01 in0.3 mm 0.30 in7.6 mm 0.01 in0.3 mm
12:07 AM 42.3°F5.7°C 39.2°F4.0°C 89% 2.0 mph NNW3.2 kmh NNW -- 30.33 in1027.1 mb 0.01 in0.3 mm 0.00 in0.0 mm 0.01 in0.3 mm
12:12 AM 42.1°F5.6°C 39.3°F4.1°C 90% 3.0 mph NNE4.8 kmh NNE -- 30.32 in1026.8 mb 0.01 in0.3 mm 0.00 in0.0 mm 0.01 in0.3 mm
12:17 AM 42.1°F5.6°C 39.0°F3.9°C 89% 2.0 mph NE3.2 kmh NE -- 30.32 in1026.8 mb 0.01 in0.3 mm 0.00 in0.0 mm 0.01 in0.3 mm
12:22 AM 42.1°F5.6°C 39.0°F3.9°C 89% 2.0 mph NNE3.2 kmh NNE -- 30.32 in1026.8 mb 0.01 in0.3 mm 0.00 in0.0 mm 0.01 in0.3 mm
12:27 AM 42.1°F5.6°C 39.0°F3.9°C 89% 2.0 mph NNE3.2 kmh NNE -- 30.31 in1026.4 mb 0.01 in0.3 mm 0.00 in0.0 mm 0.01 in0.3 mm
12:33 AM 42.0°F5.6°C 39.3°F4.1°C 90% 3.0 mph N4.8 kmh N -- 30.31 in1026.4 mb 0.01 in0.3 mm 0.00 in0.0 mm 0.01 in0.3 mm
12:37 AM 42.0°F5.6°C 39.0°F3.9°C 89% 2.0 mph N3.2 kmh N -- 30.30 in1026.1 mb 0.01 in0.3 mm 0.00 in0.0 mm 0.01 in0.3 mm
12:42 AM 41.9°F5.5°C 39.1°F3.9°C 90% 2.0 mph E3.2 kmh E -- 30.30 in1026.1 mb 0.01 in0.3 mm 0.00 in0.0 mm 0.01 in0.3 mm
12:47 AM 41.8°F5.4°C 38.7°F3.7°C 89% 3.0 mph NE4.8 kmh NE -- 30.30 in1026.1 mb 0.00 in0.0 mm 0.00 in0.0 mm 0.01 in0.3 mm
12:53 AM 41.9°F5.5°C 39.1°F3.9°C 90% Calm Calm -- 30.30 in1026.1 mb 0.00 in0.0 mm 0.00 in0.0 mm 0.01 in0.3 mm
12:57 AM 41.8°F5.4°C 39.0°F3.9°C 90% Calm Calm -- 30.30 in1026.1 mb 0.00 in0.0 mm 0.00 in0.0 mm 0.01 in0.3 mm
01:02 AM 41.7°F5.4°C 39.0°F3.9°C 90% Calm Calm -- 30.30 in1026.1 mb 0.00 in0.0 mm 0.00 in0.0 mm 0.01 in0.3 mm
01:07 AM 41.7°F5.4°C 39.0°F3.9°C 90% 1.0 mph SE1.6 kmh SE -- 30.30 in1026.1 mb 0.00 in0.0 mm 0.00 in0.0 mm 0.01 in0.3 mm
01:12 AM 41.8°F5.4°C 39.0°F3.9°C 90% 1.0 mph SE1.6 kmh SE -- 30.29 in1025.7 mb 0.00 in0.0 mm 0.00 in0.0 mm 0.01 in0.3 mm
01:17 AM 41.8°F5.4°C 39.3°F4.1°C 91% Calm Calm -- 30.29 in1025.7 mb 0.00 in0.0 mm 0.00 in0.0 mm 0.01 in0.3 mm
01:23 AM 41.8°F5.4°C 39.3°F4.1°C 91% Calm Calm -- 30.29 in1025.7 mb 0.00 in0.0 mm 0.00 in0.0 mm 0.01 in0.3 mm
01:27 AM 41.8°F5.4°C 39.3°F4.1°C 91% Calm Calm -- 30.29 in1025.7 mb 0.00 in0.0 mm 0.00 in0.0 mm 0.01 in0.3 mm
01:32 AM 41.9°F5.5°C 39.4°F4.1°C 91% Calm Calm -- 30.28 in1025.4 mb 0.00 in0.0 mm 0.00 in0.0 mm 0.01 in0.3 mm
01:38 AM 41.8°F5.4°C 39.3°F4.1°C 91% Calm Calm -- 30.28 in1025.4 mb 0.00 in0.0 mm 0.00 in0.0 mm 0.01 in0.3 mm
01:43 AM 41.9°F5.5°C 39.4°F4.1°C 91% Calm Calm -- 30.29 in1025.7 mb 0.01 in0.3 mm 0.12 in3.0 mm 0.02 in0.5 mm
01:47 AM 41.9°F5.5°C 39.4°F4.1°C 91% Calm Calm -- 30.29 in1025.7 mb 0.01 in0.3 mm 0.00 in0.0 mm 0.02 in0.5 mm
01:52 AM 41.9°F5.5°C 39.4°F4.1°C 91% Calm Calm -- 30.29 in1025.7 mb 0.01 in0.3 mm 0.00 in0.0 mm 0.02 in0.5 mm
01:58 AM 41.9°F5.5°C 39.4°F4.1°C 91% Calm Calm -- 30.29 in1025.7 mb 0.01 in0.3 mm 0.00 in0.0 mm 0.02 in0.5 mm
02:02 AM 42.0°F5.6°C 39.9°F4.4°C 92% Calm Calm -- 30.29 in1025.7 mb 0.01 in0.3 mm 0.00 in0.0 mm 0.02 in0.5 mm
02:07 AM 41.9°F5.5°C 39.7°F4.3°C 92% Calm Calm -- 30.29 in1025.7 mb 0.01 in0.3 mm 0.00 in0.0 mm 0.02 in0.5 mm
02:12 AM 41.9°F5.5°C 39.7°F4.3°C 92% Calm Calm -- 30.29 in1025.7 mb 0.01 in0.3 mm 0.00 in0.0 mm 0.02 in0.5 mm
02:17 AM 41.8°F5.4°C 39.8°F4.3°C 93% Calm Calm -- 30.28 in1025.4 mb 0.01 in0.3 mm 0.00 in0.0 mm 0.02 in0.5 mm
02:22 AM 41.9°F5.5°C 40.0°F4.4°C 93% Calm Calm -- 30.28 in1025.4 mb 0.02 in0.5 mm 0.12 in3.0 mm 0.03 in0.8 mm
02:27 AM 41.8°F5.4°C 39.8°F4.3°C 93% Calm Calm -- 30.28 in1025.4 mb 0.02 in0.5 mm 0.00 in0.0 mm 0.03 in0.8 mm
02:32 AM 41.8°F5.4°C 39.8°F4.3°C 93% Calm Calm -- 30.28 in1025.4 mb 0.02 in0.5 mm 0.00 in0.0 mm 0.03 in0.8 mm
02:38 AM 41.8°F5.4°C 39.8°F4.3°C 93% Calm Calm -- 30.28 in1025.4 mb 0.01 in0.3 mm 0.00 in0.0 mm 0.03 in0.8 mm
02:42 AM 41.8°F5.4°C 40.1°F4.5°C 94% Calm Calm -- 30.28 in1025.4 mb 0.01 in0.3 mm 0.00 in0.0 mm 0.03 in0.8 mm
02:52 AM 41.9°F5.5°C 40.3°F4.6°C 94% Calm Calm -- 30.28 in1025.4 mb 0.01 in0.3 mm 0.00 in0.0 mm 0.03 in0.8 mm
02:57 AM 41.9°F5.5°C 40.3°F4.6°C 94% 1.0 mph ESE1.6 kmh ESE -- 30.28 in1025.4 mb 0.01 in0.3 mm 0.00 in0.0 mm 0.03 in0.8 mm
03:02 AM 41.8°F5.4°C 40.1°F4.5°C 94% Calm Calm -- 30.28 in1025.4 mb 0.01 in0.3 mm 0.00 in0.0 mm 0.03 in0.8 mm
03:07 AM 41.8°F5.4°C 40.1°F4.5°C 94% Calm Calm -- 30.27 in1025.1 mb 0.01 in0.3 mm 0.00 in0.0 mm 0.03 in0.8 mm
03:12 AM 41.9°F5.5°C 40.3°F4.6°C 94% Calm Calm -- 30.27 in1025.1 mb 0.01 in0.3 mm 0.00 in0.0 mm 0.03 in0.8 mm
03:18 AM 41.9°F5.5°C 40.3°F4.6°C 94% 1.0 mph E1.6 kmh E -- 30.27 in1025.1 mb 0.01 in0.3 mm 0.00 in0.0 mm 0.04 in1.0 mm
03:22 AM 41.9°F5.5°C 40.3°F4.6°C 94% 1.0 mph SE1.6 kmh SE -- 30.27 in1025.1 mb 0.01 in0.3 mm 0.00 in0.0 mm 0.04 in1.0 mm
03:27 AM 41.8°F5.4°C 40.1°F4.5°C 94% 2.0 mph ENE3.2 kmh ENE -- 30.27 in1025.1 mb 0.01 in0.3 mm 0.00 in0.0 mm 0.04 in1.0 mm
03:32 AM 41.7°F5.4°C 40.1°F4.5°C 94% 2.0 mph E3.2 kmh E -- 30.27 in1025.1 mb 0.01 in0.3 mm 0.00 in0.0 mm 0.04 in1.0 mm
03:38 AM 41.7°F5.4°C 40.1°F4.5°C 94% Calm Calm -- 30.27 in1025.1 mb 0.01 in0.3 mm 0.00 in0.0 mm 0.04 in1.0 mm
03:42 AM 41.7°F5.4°C 40.1°F4.5°C 94% 1.0 mph E1.6 kmh E -- 30.27 in1025.1 mb 0.01 in0.3 mm 0.00 in0.0 mm 0.04 in1.0 mm
03:47 AM 41.8°F5.4°C 40.1°F4.5°C 94% 2.0 mph ESE3.2 kmh ESE -- 30.26 in1024.7 mb 0.01 in0.3 mm 0.00 in0.0 mm 0.04 in1.0 mm
03:53 AM 41.9°F5.5°C 40.6°F4.8°C 95% 2.0 mph NE3.2 kmh NE -- 30.25 in1024.4 mb 0.01 in0.3 mm 0.00 in0.0 mm 0.04 in1.0 mm
03:57 AM 41.7°F5.4°C 40.1°F4.5°C 94% 2.0 mph NE3.2 kmh NE -- 30.25 in1024.4 mb 0.02 in0.5 mm 0.15 in3.8 mm 0.05 in1.3 mm
04:02 AM 41.8°F5.4°C 40.4°F4.7°C 95% 2.0 mph ESE3.2 kmh ESE -- 30.25 in1024.4 mb 0.02 in0.5 mm 0.00 in0.0 mm 0.05 in1.3 mm
04:07 AM 41.7°F5.4°C 40.4°F4.7°C 95% 2.0 mph N3.2 kmh N -- 30.24 in1024.0 mb 0.01 in0.3 mm 0.00 in0.0 mm 0.05 in1.3 mm
04:12 AM 41.6°F5.3°C 39.9°F4.4°C 94% 3.0 mph NNE4.8 kmh NNE -- 30.24 in1024.0 mb 0.01 in0.3 mm 0.00 in0.0 mm 0.05 in1.3 mm
04:17 AM 41.5°F5.3°C 39.9°F4.4°C 94% 2.0 mph NNE3.2 kmh NNE -- 30.24 in1024.0 mb 0.01 in0.3 mm 0.00 in0.0 mm 0.05 in1.3 mm
04:22 AM 41.4°F5.2°C 39.7°F4.3°C 94% 2.0 mph N3.2 kmh N -- 30.24 in1024.0 mb 0.01 in0.3 mm 0.00 in0.0 mm 0.05 in1.3 mm
04:27 AM 41.3°F5.2°C 39.7°F4.3°C 94% 2.0 mph NE3.2 kmh NE -- 30.24 in1024.0 mb 0.02 in0.5 mm 0.12 in3.0 mm 0.06 in1.5 mm
04:33 AM 41.3°F5.2°C 39.7°F4.3°C 94% 1.0 mph ESE1.6 kmh ESE -- 30.24 in1024.0 mb 0.02 in0.5 mm 0.00 in0.0 mm 0.06 in1.5 mm
04:37 AM 41.4°F5.2°C 39.7°F4.3°C 94% 3.0 mph NE4.8 kmh NE -- 30.24 in1024.0 mb 0.02 in0.5 mm 0.00 in0.0 mm 0.06 in1.5 mm
04:42 AM 41.3°F5.2°C 39.7°F4.3°C 94% 3.0 mph NE4.8 kmh NE -- 30.24 in1024.0 mb 0.02 in0.5 mm 0.00 in0.0 mm 0.06 in1.5 mm
04:47 AM 41.3°F5.2°C 39.7°F4.3°C 94% 2.0 mph NE3.2 kmh NE -- 30.24 in1024.0 mb 0.01 in0.3 mm 0.00 in0.0 mm 0.06 in1.5 mm
04:52 AM 41.3°F5.2°C 39.7°F4.3°C 94% 2.0 mph E3.2 kmh E -- 30.24 in1024.0 mb 0.01 in0.3 mm 0.00 in0.0 mm 0.06 in1.5 mm
04:57 AM 41.3°F5.2°C 39.7°F4.3°C 94% 3.0 mph N4.8 kmh N -- 30.24 in1024.0 mb 0.01 in0.3 mm 0.00 in0.0 mm 0.06 in1.5 mm
05:02 AM 41.3°F5.2°C 39.7°F4.3°C 94% 3.0 mph N4.8 kmh N -- 30.24 in1024.0 mb 0.01 in0.3 mm 0.00 in0.0 mm 0.06 in1.5 mm
05:07 AM 41.2°F5.1°C 39.6°F4.2°C 94% 3.0 mph N4.8 kmh N -- 30.24 in1024.0 mb 0.01 in0.3 mm 0.00 in0.0 mm 0.06 in1.5 mm
05:13 AM 41.3°F5.2°C 39.7°F4.3°C 94% 2.0 mph NE3.2 kmh NE -- 30.24 in1024.0 mb 0.01 in0.3 mm 0.00 in0.0 mm 0.06 in1.5 mm
05:17 AM 41.3°F5.2°C 39.7°F4.3°C 94% 3.0 mph NE4.8 kmh NE -- 30.24 in1024.0 mb 0.00 in0.0 mm 0.00 in0.0 mm 0.06 in1.5 mm
05:22 AM 41.2°F5.1°C 39.6°F4.2°C 94% 2.0 mph NE3.2 kmh NE -- 30.24 in1024.0 mb 0.00 in0.0 mm 0.00 in0.0 mm 0.06 in1.5 mm
05:27 AM 41.2°F5.1°C 39.6°F4.2°C 94% 5.0 mph N8.0 kmh N -- 30.24 in1024.0 mb 0.01 in0.3 mm 0.12 in3.0 mm 0.07 in1.8 mm
05:33 AM 41.2°F5.1°C 39.6°F4.2°C 94% 3.0 mph NE4.8 kmh NE -- 30.23 in1023.7 mb 0.01 in0.3 mm 0.00 in0.0 mm 0.07 in1.8 mm
05:37 AM 41.3°F5.2°C 39.7°F4.3°C 94% 3.0 mph NNE4.8 kmh NNE -- 30.23 in1023.7 mb 0.01 in0.3 mm 0.00 in0.0 mm 0.07 in1.8 mm
05:42 AM 41.2°F5.1°C 39.6°F4.2°C 94% 2.0 mph N3.2 kmh N -- 30.24 in1024.0 mb 0.01 in0.3 mm 0.00 in0.0 mm 0.07 in1.8 mm
05:47 AM 41.3°F5.2°C 39.7°F4.3°C 94% 3.0 mph NE4.8 kmh NE -- 30.23 in1023.7 mb 0.02 in0.5 mm 0.12 in3.0 mm 0.08 in2.0 mm
05:52 AM 41.3°F5.2°C 39.7°F4.3°C 94% 3.0 mph NE4.8 kmh NE -- 30.24 in1024.0 mb 0.02 in0.5 mm 0.00 in0.0 mm 0.08 in2.0 mm
05:57 AM 41.3°F5.2°C 39.7°F4.3°C 94% 2.0 mph ESE3.2 kmh ESE -- 30.23 in1023.7 mb 0.02 in0.5 mm 0.00 in0.0 mm 0.08 in2.0 mm
06:02 AM 41.3°F5.2°C 39.7°F4.3°C 94% 3.0 mph NE4.8 kmh NE -- 30.23 in1023.7 mb 0.02 in0.5 mm 0.00 in0.0 mm 0.08 in2.0 mm
06:07 AM 41.3°F5.2°C 39.7°F4.3°C 94% 3.0 mph NNE4.8 kmh NNE -- 30.23 in1023.7 mb 0.02 in0.5 mm 0.00 in0.0 mm 0.08 in2.0 mm
06:12 AM 41.3°F5.2°C 39.7°F4.3°C 94% 3.0 mph NE4.8 kmh NE -- 30.24 in1024.0 mb 0.02 in0.5 mm 0.00 in0.0 mm 0.08 in2.0 mm
06:18 AM 41.3°F5.2°C 39.7°F4.3°C 94% 1.0 mph SE1.6 kmh SE -- 30.23 in1023.7 mb 0.02 in0.5 mm 0.00 in0.0 mm 0.09 in2.3 mm
06:22 AM 41.4°F5.2°C 39.7°F4.3°C 94% 2.0 mph NE3.2 kmh NE -- 30.23 in1023.7 mb 0.02 in0.5 mm 0.00 in0.0 mm 0.09 in2.3 mm
06:27 AM 41.2°F5.1°C 39.6°F4.2°C 94% 3.0 mph N4.8 kmh N -- 30.23 in1023.7 mb 0.02 in0.5 mm 0.00 in0.0 mm 0.09 in2.3 mm
06:32 AM 41.2°F5.1°C 39.6°F4.2°C 94% 3.0 mph N4.8 kmh N -- 30.23 in1023.7 mb 0.02 in0.5 mm 0.00 in0.0 mm 0.09 in2.3 mm
06:37 AM 41.3°F5.2°C 39.7°F4.3°C 94% 1.0 mph SSE1.6 kmh SSE -- 30.23 in1023.7 mb 0.02 in0.5 mm 0.00 in0.0 mm 0.10 in2.5 mm
06:42 AM 41.2°F5.1°C 39.6°F4.2°C 94% 1.0 mph N1.6 kmh N -- 30.23 in1023.7 mb 0.02 in0.5 mm 0.00 in0.0 mm 0.10 in2.5 mm
06:47 AM 41.3°F5.2°C 40.0°F4.4°C 95% 3.0 mph NNE4.8 kmh NNE -- 30.23 in1023.7 mb 0.02 in0.5 mm 0.00 in0.0 mm 0.10 in2.5 mm
06:52 AM 41.1°F5.1°C 39.8°F4.3°C 95% 3.0 mph NNE4.8 kmh NNE -- 30.23 in1023.7 mb 0.03 in0.8 mm 0.12 in3.0 mm 0.11 in2.8 mm
06:58 AM 41.1°F5.1°C 39.8°F4.3°C 95% 3.0 mph NE4.8 kmh NE -- 30.23 in1023.7 mb 0.03 in0.8 mm 0.00 in0.0 mm 0.11 in2.8 mm
07:02 AM 41.1°F5.1°C 39.8°F4.3°C 95% 3.0 mph N4.8 kmh N -- 30.23 in1023.7 mb 0.03 in0.8 mm 0.00 in0.0 mm 0.11 in2.8 mm
07:07 AM 41.2°F5.1°C 39.8°F4.3°C 95% 3.0 mph NE4.8 kmh NE -- 30.23 in1023.7 mb 0.03 in0.8 mm 0.00 in0.0 mm 0.11 in2.8 mm
07:12 AM 41.1°F5.1°C 39.8°F4.3°C 95% 2.0 mph ENE3.2 kmh ENE -- 30.22 in1023.4 mb 0.03 in0.8 mm 0.00 in0.0 mm 0.11 in2.8 mm
07:17 AM 41.3°F5.2°C 40.0°F4.4°C 95% 3.0 mph NE4.8 kmh NE -- 30.23 in1023.7 mb 0.02 in0.5 mm 0.00 in0.0 mm 0.11 in2.8 mm
07:22 AM 41.3°F5.2°C 40.0°F4.4°C 95% 2.0 mph NE3.2 kmh NE -- 30.22 in1023.4 mb 0.02 in0.5 mm 0.00 in0.0 mm 0.11 in2.8 mm
07:27 AM 41.3°F5.2°C 40.0°F4.4°C 95% Calm Calm -- 30.22 in1023.4 mb 0.02 in0.5 mm 0.00 in0.0 mm 0.12 in3.0 mm
07:32 AM 41.2°F5.1°C 39.8°F4.3°C 95% 2.0 mph N3.2 kmh N -- 30.22 in1023.4 mb 0.02 in0.5 mm 0.00 in0.0 mm 0.12 in3.0 mm
07:38 AM 41.3°F5.2°C 40.0°F4.4°C 95% 2.0 mph E3.2 kmh E -- 30.22 in1023.4 mb 0.02 in0.5 mm 0.00 in0.0 mm 0.12 in3.0 mm
07:42 AM 41.3°F5.2°C 40.0°F4.4°C 95% Calm Calm -- 30.22 in1023.4 mb 0.02 in0.5 mm 0.00 in0.0 mm 0.12 in3.0 mm
07:47 AM 41.3°F5.2°C 40.0°F4.4°C 95% Calm Calm -- 30.22 in1023.4 mb 0.01 in0.3 mm 0.00 in0.0 mm 0.12 in3.0 mm
07:52 AM 41.3°F5.2°C 40.0°F4.4°C 95% Calm Calm -- 30.22 in1023.4 mb 0.01 in0.3 mm 0.00 in0.0 mm 0.12 in3.0 mm
07:57 AM 41.4°F5.2°C 40.0°F4.4°C 95% Calm Calm -- 30.22 in1023.4 mb 0.01 in0.3 mm 0.00 in0.0 mm 0.12 in3.0 mm
08:02 AM 41.4°F5.2°C 40.0°F4.4°C 95% 1.0 mph E1.6 kmh E -- 30.22 in1023.4 mb 0.01 in0.3 mm 0.00 in0.0 mm 0.12 in3.0 mm
08:07 AM 41.5°F5.3°C 40.2°F4.6°C 95% Calm Calm -- 30.22 in1023.4 mb 0.01 in0.3 mm 0.00 in0.0 mm 0.12 in3.0 mm
08:12 AM 41.4°F5.2°C 40.0°F4.4°C 95% Calm Calm -- 30.22 in1023.4 mb 0.01 in0.3 mm 0.00 in0.0 mm 0.12 in3.0 mm
08:17 AM 41.5°F5.3°C 40.2°F4.6°C 95% 2.0 mph ENE3.2 kmh ENE -- 30.21 in1023.0 mb 0.00 in0.0 mm 0.00 in0.0 mm 0.12 in3.0 mm
08:22 AM 41.6°F5.3°C 40.2°F4.6°C 95% 2.0 mph WNW3.2 kmh WNW -- 30.21 in1023.0 mb 0.00 in0.0 mm 0.00 in0.0 mm 0.12 in3.0 mm
08:27 AM 41.6°F5.3°C 40.2°F4.6°C 95% 2.0 mph ENE3.2 kmh ENE -- 30.21 in1023.0 mb 0.00 in0.0 mm 0.00 in0.0 mm 0.12 in3.0 mm
08:32 AM 41.7°F5.4°C 40.1°F4.5°C 94% 2.0 mph NE3.2 kmh NE -- 30.21 in1023.0 mb 0.00 in0.0 mm 0.00 in0.0 mm 0.12 in3.0 mm
08:37 AM 41.8°F5.4°C 40.1°F4.5°C 94% 1.0 mph E1.6 kmh E -- 30.21 in1023.0 mb 0.00 in0.0 mm 0.00 in0.0 mm 0.12 in3.0 mm
08:42 AM 41.9°F5.5°C 40.3°F4.6°C 94% Calm Calm -- 30.21 in1023.0 mb 0.00 in0.0 mm 0.00 in0.0 mm 0.12 in3.0 mm
08:47 AM 42.1°F5.6°C 40.5°F4.7°C 94% 1.0 mph ESE1.6 kmh ESE -- 30.21 in1023.0 mb 0.00 in0.0 mm 0.00 in0.0 mm 0.12 in3.0 mm
08:53 AM 42.3°F5.7°C 40.6°F4.8°C 94% 2.0 mph NE3.2 kmh NE -- 30.21 in1023.0 mb 0.00 in0.0 mm 0.00 in0.0 mm 0.12 in3.0 mm
08:57 AM 42.3°F5.7°C 40.6°F4.8°C 94% 1.0 mph N1.6 kmh N -- 30.21 in1023.0 mb 0.00 in0.0 mm 0.00 in0.0 mm 0.12 in3.0 mm
09:02 AM 42.3°F5.7°C 40.6°F4.8°C 94% Calm Calm -- 30.22 in1023.4 mb 0.00 in0.0 mm 0.00 in0.0 mm 0.12 in3.0 mm
09:07 AM 42.4°F5.8°C 41.1°F5.1°C 95% 1.0 mph E1.6 kmh E -- 30.22 in1023.4 mb 0.00 in0.0 mm 0.00 in0.0 mm 0.12 in3.0 mm
09:12 AM 42.4°F5.8°C 41.1°F5.1°C 95% 1.0 mph E1.6 kmh E -- 30.22 in1023.4 mb 0.00 in0.0 mm 0.00 in0.0 mm 0.12 in3.0 mm
09:17 AM 42.4°F5.8°C 41.1°F5.1°C 95% 1.0 mph ESE1.6 kmh ESE -- 30.22 in1023.4 mb 0.00 in0.0 mm 0.00 in0.0 mm 0.12 in3.0 mm
09:22 AM 42.6°F5.9°C 41.3°F5.2°C 95% 1.0 mph ENE1.6 kmh ENE -- 30.22 in1023.4 mb 0.00 in0.0 mm 0.00 in0.0 mm 0.12 in3.0 mm
09:27 AM 42.5°F5.8°C 41.1°F5.1°C 95% 2.0 mph ENE3.2 kmh ENE -- 30.22 in1023.4 mb 0.00 in0.0 mm 0.00 in0.0 mm 0.12 in3.0 mm
09:33 AM 42.5°F5.8°C 41.1°F5.1°C 95% 2.0 mph NNE3.2 kmh NNE -- 30.22 in1023.4 mb 0.01 in0.3 mm 0.10 in2.5 mm 0.13 in3.3 mm
09:37 AM 42.5°F5.8°C 41.1°F5.1°C 95% 2.0 mph NNE3.2 kmh NNE -- 30.23 in1023.7 mb 0.01 in0.3 mm 0.00 in0.0 mm 0.13 in3.3 mm
09:42 AM 42.5°F5.8°C 41.1°F5.1°C 95% 2.0 mph NE3.2 kmh NE -- 30.23 in1023.7 mb 0.01 in0.3 mm 0.00 in0.0 mm 0.13 in3.3 mm
09:47 AM 42.6°F5.9°C 41.3°F5.2°C 95% 2.0 mph NE3.2 kmh NE -- 30.23 in1023.7 mb 0.01 in0.3 mm 0.00 in0.0 mm 0.13 in3.3 mm
09:53 AM 42.6°F5.9°C 41.3°F5.2°C 95% 3.0 mph NE4.8 kmh NE -- 30.23 in1023.7 mb 0.01 in0.3 mm 0.00 in0.0 mm 0.13 in3.3 mm
09:57 AM 42.7°F5.9°C 41.3°F5.2°C 95% 3.0 mph NE4.8 kmh NE -- 30.23 in1023.7 mb 0.01 in0.3 mm 0.00 in0.0 mm 0.13 in3.3 mm
10:02 AM 42.7°F5.9°C 41.3°F5.2°C 95% 4.0 mph NE6.4 kmh NE -- 30.23 in1023.7 mb 0.01 in0.3 mm 0.00 in0.0 mm 0.13 in3.3 mm
10:07 AM 42.6°F5.9°C 41.0°F5.0°C 94% 3.0 mph NE4.8 kmh NE -- 30.23 in1023.7 mb 0.01 in0.3 mm 0.00 in0.0 mm 0.13 in3.3 mm
10:12 AM 42.7°F5.9°C 41.0°F5.0°C 94% 2.0 mph NE3.2 kmh NE -- 30.23 in1023.7 mb 0.02 in0.5 mm 0.12 in3.0 mm 0.14 in3.6 mm
10:17 AM 42.9°F6.1°C 41.4°F5.2°C 94% 2.0 mph ENE3.2 kmh ENE -- 30.24 in1024.0 mb 0.02 in0.5 mm 0.00 in0.0 mm 0.14 in3.6 mm
10:22 AM 42.8°F6.0°C 41.2°F5.1°C 94% 4.0 mph NNE6.4 kmh NNE -- 30.24 in1024.0 mb 0.02 in0.5 mm 0.00 in0.0 mm 0.14 in3.6 mm
10:27 AM 42.8°F6.0°C 41.2°F5.1°C 94% 3.0 mph E4.8 kmh E -- 30.23 in1023.7 mb 0.01 in0.3 mm 0.00 in0.0 mm 0.14 in3.6 mm
10:32 AM 42.9°F6.1°C 41.4°F5.2°C 94% 2.0 mph NE3.2 kmh NE -- 30.24 in1024.0 mb 0.01 in0.3 mm 0.00 in0.0 mm 0.14 in3.6 mm
10:37 AM 43.0°F6.1°C 41.4°F5.2°C 94% 3.0 mph NNE4.8 kmh NNE -- 30.24 in1024.0 mb 0.01 in0.3 mm 0.00 in0.0 mm 0.14 in3.6 mm
10:42 AM 43.1°F6.2°C 41.2°F5.1°C 93% 2.0 mph NE3.2 kmh NE -- 30.24 in1024.0 mb 0.01 in0.3 mm 0.00 in0.0 mm 0.14 in3.6 mm
10:47 AM 43.0°F6.1°C 41.1°F5.1°C 93% 3.0 mph NE4.8 kmh NE -- 30.23 in1023.7 mb 0.02 in0.5 mm 0.12 in3.0 mm 0.15 in3.8 mm
10:53 AM 43.3°F6.3°C 41.4°F5.2°C 93% 1.0 mph ESE1.6 kmh ESE -- 30.23 in1023.7 mb 0.02 in0.5 mm 0.00 in0.0 mm 0.15 in3.8 mm
10:57 AM 43.5°F6.4°C 41.6°F5.3°C 93% 1.0 mph SSE1.6 kmh SSE -- 30.23 in1023.7 mb 0.02 in0.5 mm 0.00 in0.0 mm 0.15 in3.8 mm
11:02 AM 43.5°F6.4°C 41.3°F5.2°C 92% 3.0 mph NE4.8 kmh NE -- 30.22 in1023.4 mb 0.02 in0.5 mm 0.00 in0.0 mm 0.15 in3.8 mm
11:07 AM 43.5°F6.4°C 41.3°F5.2°C 92% 1.0 mph ESE1.6 kmh ESE -- 30.22 in1023.4 mb 0.01 in0.3 mm 0.00 in0.0 mm 0.15 in3.8 mm
11:13 AM 43.6°F6.4°C 41.3°F5.2°C 92% 2.0 mph SE3.2 kmh SE -- 30.22 in1023.4 mb 0.01 in0.3 mm 0.00 in0.0 mm 0.15 in3.8 mm
11:17 AM 43.5°F6.4°C 41.3°F5.2°C 92% 5.0 mph ENE8.0 kmh ENE -- 30.22 in1023.4 mb 0.01 in0.3 mm 0.00 in0.0 mm 0.15 in3.8 mm
11:22 AM 43.7°F6.5°C 41.2°F5.1°C 91% 2.0 mph NE3.2 kmh NE -- 30.22 in1023.4 mb 0.01 in0.3 mm 0.00 in0.0 mm 0.15 in3.8 mm
11:27 AM 43.7°F6.5°C 41.5°F5.3°C 92% 2.0 mph SE3.2 kmh SE -- 30.22 in1023.4 mb 0.01 in0.3 mm 0.00 in0.0 mm 0.15 in3.8 mm
11:33 AM 43.8°F6.6°C 41.4°F5.2°C 91% 2.0 mph E3.2 kmh E -- 30.21 in1023.0 mb 0.01 in0.3 mm 0.00 in0.0 mm 0.15 in3.8 mm
11:37 AM 44.0°F6.7°C 41.9°F5.5°C 92% 3.0 mph NE4.8 kmh NE -- 30.21 in1023.0 mb 0.00 in0.0 mm 0.00 in0.0 mm 0.15 in3.8 mm
11:42 AM 43.9°F6.6°C 41.4°F5.2°C 91% 2.0 mph E3.2 kmh E -- 30.21 in1023.0 mb 0.00 in0.0 mm 0.00 in0.0 mm 0.15 in3.8 mm
11:47 AM 43.9°F6.6°C 41.7°F5.4°C 92% 3.0 mph NE4.8 kmh NE -- 30.20 in1022.7 mb 0.00 in0.0 mm 0.00 in0.0 mm 0.15 in3.8 mm
11:53 AM 43.9°F6.6°C 41.7°F5.4°C 92% 4.0 mph NNE6.4 kmh NNE -- 30.20 in1022.7 mb 0.00 in0.0 mm 0.00 in0.0 mm 0.15 in3.8 mm
11:57 AM 43.9°F6.6°C 41.4°F5.2°C 91% 3.0 mph NNE4.8 kmh NNE -- 30.20 in1022.7 mb 0.00 in0.0 mm 0.00 in0.0 mm 0.15 in3.8 mm
12:02 PM 43.8°F6.6°C 41.4°F5.2°C 91% 4.0 mph N6.4 kmh N -- 30.20 in1022.7 mb 0.00 in0.0 mm 0.00 in0.0 mm 0.15 in3.8 mm
12:07 PM 44.0°F6.7°C 41.6°F5.3°C 91% 4.0 mph NNE6.4 kmh NNE -- 30.19 in1022.4 mb 0.00 in0.0 mm 0.00 in0.0 mm 0.15 in3.8 mm
12:12 PM 44.1°F6.7°C 41.6°F5.3°C 91% 4.0 mph NE6.4 kmh NE -- 30.19 in1022.4 mb 0.00 in0.0 mm 0.00 in0.0 mm 0.15 in3.8 mm
12:17 PM 44.2°F6.8°C 41.5°F5.3°C 90% 4.0 mph N6.4 kmh N -- 30.19 in1022.4 mb 0.00 in0.0 mm 0.00 in0.0 mm 0.15 in3.8 mm
12:22 PM 44.5°F6.9°C 41.6°F5.3°C 90% 3.0 mph E4.8 kmh E -- 30.19 in1022.4 mb 0.00 in0.0 mm 0.00 in0.0 mm 0.15 in3.8 mm
12:27 PM 44.8°F7.1°C 41.7°F5.4°C 89% 2.0 mph E3.2 kmh E -- 30.18 in1022.0 mb 0.00 in0.0 mm 0.00 in0.0 mm 0.15 in3.8 mm
12:32 PM 45.0°F7.2°C 41.6°F5.3°C 88% 6.0 mph NNE9.7 kmh NNE -- 30.17 in1021.7 mb 0.00 in0.0 mm 0.00 in0.0 mm 0.15 in3.8 mm
12:37 PM 45.4°F7.4°C 41.9°F5.5°C 88% 4.0 mph N6.4 kmh N -- 30.17 in1021.7 mb 0.00 in0.0 mm 0.00 in0.0 mm 0.15 in3.8 mm
12:42 PM 45.7°F7.6°C 42.0°F5.6°C 87% 3.0 mph NNE4.8 kmh NNE -- 30.16 in1021.3 mb 0.00 in0.0 mm 0.00 in0.0 mm 0.15 in3.8 mm
12:47 PM 45.9°F7.7°C 41.9°F5.5°C 86% 3.0 mph NE4.8 kmh NE -- 30.16 in1021.3 mb 0.00 in0.0 mm 0.00 in0.0 mm 0.15 in3.8 mm
12:52 PM 46.1°F7.8°C 42.3°F5.7°C 87% 4.0 mph NE6.4 kmh NE -- 30.16 in1021.3 mb 0.00 in0.0 mm 0.00 in0.0 mm 0.15 in3.8 mm
12:57 PM 46.3°F7.9°C 41.9°F5.5°C 85% 2.0 mph ENE3.2 kmh ENE -- 30.16 in1021.3 mb 0.00 in0.0 mm 0.00 in0.0 mm 0.15 in3.8 mm
01:02 PM 46.5°F8.1°C 42.3°F5.7°C 85% 3.0 mph NNE4.8 kmh NNE -- 30.16 in1021.3 mb 0.00 in0.0 mm 0.00 in0.0 mm 0.15 in3.8 mm
01:08 PM 46.7°F8.2°C 42.4°F5.8°C 85% 1.0 mph S1.6 kmh S -- 30.16 in1021.3 mb 0.00 in0.0 mm 0.00 in0.0 mm 0.15 in3.8 mm
01:12 PM 46.8°F8.2°C 42.4°F5.8°C 85% Calm Calm -- 30.16 in1021.3 mb 0.00 in0.0 mm 0.00 in0.0 mm 0.15 in3.8 mm
01:17 PM 46.8°F8.2°C 42.1°F5.6°C 84% 2.0 mph ESE3.2 kmh ESE -- 30.16 in1021.3 mb 0.00 in0.0 mm 0.00 in0.0 mm 0.15 in3.8 mm
01:22 PM 47.0°F8.3°C 42.0°F5.6°C 83% 4.0 mph SSE6.4 kmh SSE -- 30.15 in1021.0 mb 0.00 in0.0 mm 0.00 in0.0 mm 0.15 in3.8 mm
01:28 PM 47.0°F8.3°C 41.7°F5.4°C 82% 2.0 mph ENE3.2 kmh ENE -- 30.15 in1021.0 mb 0.00 in0.0 mm 0.00 in0.0 mm 0.15 in3.8 mm
01:32 PM 47.0°F8.3°C 41.7°F5.4°C 82% 3.0 mph NE4.8 kmh NE -- 30.15 in1021.0 mb 0.00 in0.0 mm 0.00 in0.0 mm 0.15 in3.8 mm
01:37 PM 47.1°F8.4°C 42.5°F5.8°C 84% 3.0 mph NE4.8 kmh NE -- 30.15 in1021.0 mb 0.00 in0.0 mm 0.00 in0.0 mm 0.15 in3.8 mm
01:42 PM 47.2°F8.4°C 42.5°F5.8°C 84% 3.0 mph E4.8 kmh E -- 30.14 in1020.7 mb 0.00 in0.0 mm 0.00 in0.0 mm 0.15 in3.8 mm
01:48 PM 47.2°F8.4°C 42.8°F6.0°C 85% 1.0 mph E1.6 kmh E -- 30.14 in1020.7 mb 0.00 in0.0 mm 0.00 in0.0 mm 0.15 in3.8 mm
01:52 PM 47.2°F8.4°C 42.5°F5.8°C 84% 2.0 mph NNE3.2 kmh NNE -- 30.14 in1020.7 mb 0.00 in0.0 mm 0.00 in0.0 mm 0.15 in3.8 mm
01:57 PM 47.1°F8.4°C 42.5°F5.8°C 84% 2.0 mph ENE3.2 kmh ENE -- 30.14 in1020.7 mb 0.00 in0.0 mm 0.00 in0.0 mm 0.15 in3.8 mm
02:02 PM 47.2°F8.4°C 43.1°F6.2°C 86% 2.0 mph NE3.2 kmh NE -- 30.14 in1020.7 mb 0.00 in0.0 mm 0.00 in0.0 mm 0.15 in3.8 mm
02:07 PM 47.2°F8.4°C 42.8°F6.0°C 85% 2.0 mph ENE3.2 kmh ENE -- 30.14 in1020.7 mb 0.00 in0.0 mm 0.00 in0.0 mm 0.15 in3.8 mm
02:12 PM 47.0°F8.3°C 42.3°F5.7°C 84% 2.0 mph NE3.2 kmh NE -- 30.14 in1020.7 mb 0.01 in0.3 mm 0.12 in3.0 mm 0.16 in4.1 mm
02:17 PM 47.1°F8.4°C 42.5°F5.8°C 84% 3.0 mph ENE4.8 kmh ENE -- 30.14 in1020.7 mb 0.01 in0.3 mm 0.00 in0.0 mm 0.16 in4.1 mm
02:22 PM 47.1°F8.4°C 42.8°F6.0°C 85% 2.0 mph NE3.2 kmh NE -- 30.14 in1020.7 mb 0.01 in0.3 mm 0.00 in0.0 mm 0.16 in4.1 mm
02:27 PM 47.2°F8.4°C 42.5°F5.8°C 84% 2.0 mph N3.2 kmh N -- 30.14 in1020.7 mb 0.01 in0.3 mm 0.00 in0.0 mm 0.16 in4.1 mm
02:32 PM 47.2°F8.4°C 42.2°F5.7°C 83% 3.0 mph NE4.8 kmh NE -- 30.14 in1020.7 mb 0.01 in0.3 mm 0.00 in0.0 mm 0.16 in4.1 mm
02:37 PM 47.2°F8.4°C 42.5°F5.8°C 84% 2.0 mph NE3.2 kmh NE -- 30.14 in1020.7 mb 0.01 in0.3 mm 0.00 in0.0 mm 0.16 in4.1 mm
02:42 PM 47.2°F8.4°C 42.5°F5.8°C 84% 3.0 mph NE4.8 kmh NE -- 30.14 in1020.7 mb 0.01 in0.3 mm 0.00 in0.0 mm 0.16 in4.1 mm
02:47 PM 47.3°F8.5°C 43.0°F6.1°C 85% 2.0 mph E3.2 kmh E -- 30.14 in1020.7 mb 0.01 in0.3 mm 0.00 in0.0 mm 0.16 in4.1 mm
02:52 PM 47.4°F8.6°C 43.1°F6.2°C 85% 3.0 mph ENE4.8 kmh ENE -- 30.14 in1020.7 mb 0.01 in0.3 mm 0.00 in0.0 mm 0.16 in4.1 mm
02:57 PM 47.5°F8.6°C 43.5°F6.4°C 86% 1.0 mph SE1.6 kmh SE -- 30.14 in1020.7 mb 0.01 in0.3 mm 0.00 in0.0 mm 0.16 in4.1 mm
03:03 PM 47.5°F8.6°C 42.8°F6.0°C 84% 2.0 mph NE3.2 kmh NE -- 30.14 in1020.7 mb 0.01 in0.3 mm 0.00 in0.0 mm 0.16 in4.1 mm
03:07 PM 47.6°F8.7°C 43.3°F6.3°C 85% Calm Calm -- 30.14 in1020.7 mb 0.00 in0.0 mm 0.00 in0.0 mm 0.16 in4.1 mm
03:12 PM 47.6°F8.7°C 44.2°F6.8°C 88% 1.0 mph E1.6 kmh E -- 30.13 in1020.3 mb 0.00 in0.0 mm 0.00 in0.0 mm 0.16 in4.1 mm
03:17 PM 47.4°F8.6°C 44.4°F6.9°C 89% 2.0 mph NE3.2 kmh NE -- 30.13 in1020.3 mb 0.01 in0.3 mm 0.12 in3.0 mm 0.17 in4.3 mm
03:23 PM 47.3°F8.5°C 44.5°F6.9°C 90% 1.0 mph ESE1.6 kmh ESE -- 30.13 in1020.3 mb 0.01 in0.3 mm 0.00 in0.0 mm 0.17 in4.3 mm
03:27 PM 47.2°F8.4°C 44.0°F6.7°C 89% 2.0 mph NE3.2 kmh NE -- 30.13 in1020.3 mb 0.01 in0.3 mm 0.00 in0.0 mm 0.17 in4.3 mm
03:32 PM 47.4°F8.6°C 44.7°F7.1°C 90% 2.0 mph NNW3.2 kmh NNW -- 30.13 in1020.3 mb 0.01 in0.3 mm 0.00 in0.0 mm 0.17 in4.3 mm
03:37 PM 47.3°F8.5°C 44.5°F6.9°C 90% 2.0 mph NE3.2 kmh NE -- 30.13 in1020.3 mb 0.01 in0.3 mm 0.00 in0.0 mm 0.17 in4.3 mm
03:43 PM 47.3°F8.5°C 44.5°F6.9°C 90% 2.0 mph NE3.2 kmh NE -- 30.13 in1020.3 mb 0.01 in0.3 mm 0.00 in0.0 mm 0.17 in4.3 mm
03:47 PM 47.2°F8.4°C 44.3°F6.8°C 90% 3.0 mph NE4.8 kmh NE -- 30.13 in1020.3 mb 0.01 in0.3 mm 0.00 in0.0 mm 0.17 in4.3 mm
03:52 PM 47.3°F8.5°C 44.5°F6.9°C 90% 4.0 mph NNE6.4 kmh NNE -- 30.13 in1020.3 mb 0.01 in0.3 mm 0.00 in0.0 mm 0.17 in4.3 mm
03:57 PM 47.3°F8.5°C 44.2°F6.8°C 89% 4.0 mph NE6.4 kmh NE -- 30.12 in1020.0 mb 0.01 in0.3 mm 0.00 in0.0 mm 0.17 in4.3 mm
04:02 PM 47.4°F8.6°C 44.4°F6.9°C 89% 4.0 mph NNE6.4 kmh NNE -- 30.12 in1020.0 mb 0.01 in0.3 mm 0.00 in0.0 mm 0.17 in4.3 mm
04:07 PM 47.5°F8.6°C 44.1°F6.7°C 88% 5.0 mph NE8.0 kmh NE -- 30.12 in1020.0 mb 0.00 in0.0 mm 0.00 in0.0 mm 0.17 in4.3 mm
04:12 PM 47.7°F8.7°C 44.2°F6.8°C 88% 3.0 mph NE4.8 kmh NE -- 30.12 in1020.0 mb 0.00 in0.0 mm 0.00 in0.0 mm 0.17 in4.3 mm
04:17 PM 47.8°F8.8°C 44.4°F6.9°C 88% 6.0 mph NNE9.7 kmh NNE -- 30.12 in1020.0 mb 0.00 in0.0 mm 0.00 in0.0 mm 0.17 in4.3 mm
04:22 PM 47.8°F8.8°C 44.4°F6.9°C 88% 4.0 mph E6.4 kmh E -- 30.12 in1020.0 mb 0.00 in0.0 mm 0.00 in0.0 mm 0.17 in4.3 mm
04:28 PM 47.9°F8.8°C 44.4°F6.9°C 88% 4.0 mph NNE6.4 kmh NNE -- 30.12 in1020.0 mb 0.00 in0.0 mm 0.00 in0.0 mm 0.17 in4.3 mm
04:32 PM 48.1°F8.9°C 44.3°F6.8°C 87% 4.0 mph NNE6.4 kmh NNE -- 30.12 in1020.0 mb 0.00 in0.0 mm 0.00 in0.0 mm 0.17 in4.3 mm
04:37 PM 48.3°F9.1°C 44.3°F6.8°C 86% 5.0 mph NE8.0 kmh NE -- 30.12 in1020.0 mb 0.00 in0.0 mm 0.00 in0.0 mm 0.17 in4.3 mm
04:42 PM 48.3°F9.1°C 44.0°F6.7°C 85% 3.0 mph ENE4.8 kmh ENE -- 30.11 in1019.6 mb 0.00 in0.0 mm 0.00 in0.0 mm 0.17 in4.3 mm
04:47 PM 48.3°F9.1°C 43.7°F6.5°C 84% 6.0 mph NNE9.7 kmh NNE -- 30.12 in1020.0 mb 0.00 in0.0 mm 0.00 in0.0 mm 0.17 in4.3 mm
04:52 PM 48.4°F9.1°C 42.8°F6.0°C 81% 6.0 mph NE9.7 kmh NE -- 30.11 in1019.6 mb 0.00 in0.0 mm 0.00 in0.0 mm 0.17 in4.3 mm
04:57 PM 48.6°F9.2°C 42.3°F5.7°C 79% 6.0 mph NE9.7 kmh NE -- 30.11 in1019.6 mb 0.00 in0.0 mm 0.00 in0.0 mm 0.17 in4.3 mm
05:02 PM 48.5°F9.2°C 42.3°F5.7°C 79% 5.0 mph NNE8.0 kmh NNE -- 30.12 in1020.0 mb 0.00 in0.0 mm 0.00 in0.0 mm 0.17 in4.3 mm
05:07 PM 48.6°F9.2°C 40.9°F4.9°C 75% 5.0 mph NE8.0 kmh NE -- 30.11 in1019.6 mb 0.00 in0.0 mm 0.00 in0.0 mm 0.17 in4.3 mm
05:12 PM 48.6°F9.2°C 41.3°F5.2°C 76% 3.0 mph NE4.8 kmh NE -- 30.11 in1019.6 mb 0.00 in0.0 mm 0.00 in0.0 mm 0.17 in4.3 mm
05:17 PM 48.5°F9.2°C 40.9°F4.9°C 75% 4.0 mph NNE6.4 kmh NNE -- 30.12 in1020.0 mb 0.00 in0.0 mm 0.00 in0.0 mm 0.17 in4.3 mm
05:22 PM 48.4°F9.1°C 40.7°F4.8°C 75% 5.0 mph NE8.0 kmh NE -- 30.12 in1020.0 mb 0.00 in0.0 mm 0.00 in0.0 mm 0.17 in4.3 mm
05:27 PM 48.5°F9.2°C 40.9°F4.9°C 75% 5.0 mph NNE8.0 kmh NNE -- 30.12 in1020.0 mb 0.00 in0.0 mm 0.00 in0.0 mm 0.17 in4.3 mm
05:32 PM 48.6°F9.2°C 40.6°F4.8°C 74% 5.0 mph NE8.0 kmh NE -- 30.12 in1020.0 mb 0.00 in0.0 mm 0.00 in0.0 mm 0.17 in4.3 mm
05:37 PM 48.6°F9.2°C 40.2°F4.6°C 73% 3.0 mph NNE4.8 kmh NNE -- 30.12 in1020.0 mb 0.00 in0.0 mm 0.00 in0.0 mm 0.17 in4.3 mm
05:43 PM 48.6°F9.2°C 39.8°F4.3°C 72% 3.0 mph ENE4.8 kmh ENE -- 30.11 in1019.6 mb 0.00 in0.0 mm 0.00 in0.0 mm 0.17 in4.3 mm
05:47 PM 48.8°F9.3°C 40.0°F4.4°C 72% 4.0 mph NNE6.4 kmh NNE -- 30.11 in1019.6 mb 0.00 in0.0 mm 0.00 in0.0 mm 0.17 in4.3 mm
05:52 PM 48.8°F9.3°C 40.4°F4.7°C 73% 4.0 mph NNE6.4 kmh NNE -- 30.11 in1019.6 mb 0.00 in0.0 mm 0.00 in0.0 mm 0.17 in4.3 mm
05:57 PM 48.8°F9.3°C 40.4°F4.7°C 73% 3.0 mph N4.8 kmh N -- 30.11 in1019.6 mb 0.00 in0.0 mm 0.00 in0.0 mm 0.17 in4.3 mm
06:03 PM 48.8°F9.3°C 40.4°F4.7°C 73% 4.0 mph NE6.4 kmh NE -- 30.12 in1020.0 mb 0.00 in0.0 mm 0.00 in0.0 mm 0.17 in4.3 mm
06:07 PM 49.2°F9.6°C 40.5°F4.7°C 72% 6.0 mph NNE9.7 kmh NNE -- 30.12 in1020.0 mb 0.00 in0.0 mm 0.00 in0.0 mm 0.17 in4.3 mm
06:12 PM 49.2°F9.6°C 40.9°F4.9°C 73% 6.0 mph NE9.7 kmh NE -- 30.12 in1020.0 mb 0.00 in0.0 mm 0.00 in0.0 mm 0.17 in4.3 mm
06:17 PM 49.3°F9.6°C 41.3°F5.2°C 74% 4.0 mph NE6.4 kmh NE -- 30.12 in1020.0 mb 0.00 in0.0 mm 0.00 in0.0 mm 0.17 in4.3 mm
06:23 PM 49.3°F9.6°C 41.3°F5.2°C 74% 2.0 mph NE3.2 kmh NE -- 30.12 in1020.0 mb 0.00 in0.0 mm 0.00 in0.0 mm 0.17 in4.3 mm
06:27 PM 49.3°F9.6°C 41.6°F5.3°C 75% 4.0 mph NE6.4 kmh NE -- 30.11 in1019.6 mb 0.00 in0.0 mm 0.00 in0.0 mm 0.17 in4.3 mm
06:32 PM 49.6°F9.8°C 41.6°F5.3°C 74% 3.0 mph NE4.8 kmh NE -- 30.11 in1019.6 mb 0.00 in0.0 mm 0.00 in0.0 mm 0.17 in4.3 mm
06:37 PM 49.6°F9.8°C 41.6°F5.3°C 74% 3.0 mph NE4.8 kmh NE -- 30.11 in1019.6 mb 0.00 in0.0 mm 0.00 in0.0 mm 0.17 in4.3 mm
06:42 PM 49.5°F9.7°C 41.4°F5.2°C 74% 4.0 mph NNE6.4 kmh NNE -- 30.11 in1019.6 mb 0.00 in0.0 mm 0.00 in0.0 mm 0.17 in4.3 mm
06:47 PM 49.7°F9.8°C 41.6°F5.3°C 74% 4.0 mph NNE6.4 kmh NNE -- 30.11 in1019.6 mb 0.00 in0.0 mm 0.00 in0.0 mm 0.17 in4.3 mm
06:52 PM 49.9°F9.9°C 41.8°F5.4°C 74% 6.0 mph NNE9.7 kmh NNE -- 30.11 in1019.6 mb 0.00 in0.0 mm 0.00 in0.0 mm 0.17 in4.3 mm
06:57 PM 50.0°F10.0°C 42.3°F5.7°C 75% 4.0 mph NNE6.4 kmh NNE -- 30.11 in1019.6 mb 0.00 in0.0 mm 0.00 in0.0 mm 0.17 in4.3 mm
07:02 PM 50.0°F10.0°C 42.3°F5.7°C 75% 3.0 mph NE4.8 kmh NE -- 30.11 in1019.6 mb 0.00 in0.0 mm 0.00 in0.0 mm 0.17 in4.3 mm
07:07 PM 50.0°F10.0°C 42.3°F5.7°C 75% 4.0 mph NE6.4 kmh NE -- 30.11 in1019.6 mb 0.00 in0.0 mm 0.00 in0.0 mm 0.17 in4.3 mm
07:12 PM 50.2°F10.1°C 42.1°F5.6°C 74% 7.0 mph NE11.3 kmh NE -- 30.11 in1019.6 mb 0.00 in0.0 mm 0.00 in0.0 mm 0.17 in4.3 mm
07:17 PM 50.3°F10.2°C 42.7°F5.9°C 75% 4.0 mph NNE6.4 kmh NNE -- 30.10 in1019.3 mb 0.00 in0.0 mm 0.00 in0.0 mm 0.17 in4.3 mm
07:22 PM 50.3°F10.2°C 43.0°F6.1°C 76% 2.0 mph N3.2 kmh N -- 30.10 in1019.3 mb 0.00 in0.0 mm 0.00 in0.0 mm 0.17 in4.3 mm
07:27 PM 50.3°F10.2°C 42.7°F5.9°C 75% 4.0 mph NNE6.4 kmh NNE -- 30.10 in1019.3 mb 0.00 in0.0 mm 0.00 in0.0 mm 0.17 in4.3 mm
07:32 PM 50.6°F10.3°C 42.8°F6.0°C 75% 4.0 mph NNE6.4 kmh NNE -- 30.10 in1019.3 mb 0.00 in0.0 mm 0.00 in0.0 mm 0.17 in4.3 mm
07:37 PM 50.9°F10.5°C 43.2°F6.2°C 75% 5.0 mph NE8.0 kmh NE -- 30.11 in1019.6 mb 0.00 in0.0 mm 0.00 in0.0 mm 0.17 in4.3 mm
07:42 PM 51.0°F10.6°C 43.4°F6.3°C 75% 4.0 mph N6.4 kmh N -- 30.11 in1019.6 mb 0.00 in0.0 mm 0.00 in0.0 mm 0.17 in4.3 mm
07:47 PM 51.0°F10.6°C 43.4°F6.3°C 75% 4.0 mph NNE6.4 kmh NNE -- 30.11 in1019.6 mb 0.00 in0.0 mm 0.00 in0.0 mm 0.17 in4.3 mm
07:52 PM 51.2°F10.7°C 43.5°F6.4°C 75% 5.0 mph N8.0 kmh N -- 30.10 in1019.3 mb 0.00 in0.0 mm 0.00 in0.0 mm 0.17 in4.3 mm
07:58 PM 51.2°F10.7°C 43.5°F6.4°C 75% 2.0 mph NNE3.2 kmh NNE -- 30.10 in1019.3 mb 0.00 in0.0 mm 0.00 in0.0 mm 0.17 in4.3 mm
08:02 PM 51.3°F10.7°C 43.5°F6.4°C 75% 4.0 mph NE6.4 kmh NE -- 30.11 in1019.6 mb 0.00 in0.0 mm 0.00 in0.0 mm 0.17 in4.3 mm
08:07 PM 51.2°F10.7°C 43.2°F6.2°C 74% 5.0 mph N8.0 kmh N -- 30.10 in1019.3 mb 0.00 in0.0 mm 0.00 in0.0 mm 0.17 in4.3 mm
08:12 PM 51.3°F10.7°C 43.5°F6.4°C 75% 6.0 mph NNE9.7 kmh NNE -- 30.10 in1019.3 mb 0.00 in0.0 mm 0.00 in0.0 mm 0.17 in4.3 mm
08:18 PM 51.3°F10.7°C 43.2°F6.2°C 74% 5.0 mph NNE8.0 kmh NNE -- 30.10 in1019.3 mb 0.00 in0.0 mm 0.00 in0.0 mm 0.17 in4.3 mm
08:22 PM 51.4°F10.8°C 43.3°F6.3°C 74% 2.0 mph ENE3.2 kmh ENE -- 30.10 in1019.3 mb 0.00 in0.0 mm 0.00 in0.0 mm 0.17 in4.3 mm
08:27 PM 51.4°F10.8°C 43.3°F6.3°C 74% 2.0 mph ENE3.2 kmh ENE -- 30.10 in1019.3 mb 0.00 in0.0 mm 0.00 in0.0 mm 0.17 in4.3 mm
08:32 PM 51.5°F10.8°C 43.0°F6.1°C 73% 4.0 mph NE6.4 kmh NE -- 30.11 in1019.6 mb 0.00 in0.0 mm 0.00 in0.0 mm 0.17 in4.3 mm
08:37 PM 51.7°F10.9°C 42.8°F6.0°C 72% 3.0 mph N4.8 kmh N -- 30.10 in1019.3 mb 0.00 in0.0 mm 0.00 in0.0 mm 0.17 in4.3 mm
08:42 PM 51.6°F10.9°C 42.8°F6.0°C 72% 3.0 mph ENE4.8 kmh ENE -- 30.10 in1019.3 mb 0.00 in0.0 mm 0.00 in0.0 mm 0.17 in4.3 mm
08:47 PM 51.8°F11.0°C 43.0°F6.1°C 72% 3.0 mph NNE4.8 kmh NNE -- 30.10 in1019.3 mb 0.00 in0.0 mm 0.00 in0.0 mm 0.17 in4.3 mm
08:52 PM 51.8°F11.0°C 42.6°F5.9°C 71% 3.0 mph NE4.8 kmh NE -- 30.10 in1019.3 mb 0.00 in0.0 mm 0.00 in0.0 mm 0.17 in4.3 mm
08:57 PM 51.7°F10.9°C 42.4°F5.8°C 71% 2.0 mph ENE3.2 kmh ENE -- 30.10 in1019.3 mb 0.00 in0.0 mm 0.00 in0.0 mm 0.17 in4.3 mm
09:02 PM 51.8°F11.0°C 42.6°F5.9°C 71% 4.0 mph NE6.4 kmh NE -- 30.10 in1019.3 mb 0.00 in0.0 mm 0.00 in0.0 mm 0.17 in4.3 mm
09:07 PM 52.0°F11.1°C 42.8°F6.0°C 71% 3.0 mph NE4.8 kmh NE -- 30.09 in1019.0 mb 0.00 in0.0 mm 0.00 in0.0 mm 0.17 in4.3 mm
09:12 PM 51.8°F11.0°C 42.6°F5.9°C 71% 3.0 mph NE4.8 kmh NE -- 30.09 in1019.0 mb 0.00 in0.0 mm 0.00 in0.0 mm 0.17 in4.3 mm
09:17 PM 52.0°F11.1°C 42.8°F6.0°C 71% 4.0 mph NE6.4 kmh NE -- 30.09 in1019.0 mb 0.00 in0.0 mm 0.00 in0.0 mm 0.17 in4.3 mm
09:22 PM 51.9°F11.1°C 42.8°F6.0°C 71% 4.0 mph N6.4 kmh N -- 30.09 in1019.0 mb 0.00 in0.0 mm 0.00 in0.0 mm 0.17 in4.3 mm
09:27 PM 52.0°F11.1°C 42.8°F6.0°C 71% 2.0 mph NE3.2 kmh NE -- 30.09 in1019.0 mb 0.00 in0.0 mm 0.00 in0.0 mm 0.17 in4.3 mm
09:32 PM 51.8°F11.0°C 42.2°F5.7°C 70% 3.0 mph NNE4.8 kmh NNE -- 30.09 in1019.0 mb 0.00 in0.0 mm 0.00 in0.0 mm 0.17 in4.3 mm
09:37 PM 52.0°F11.1°C 42.8°F6.0°C 71% 3.0 mph NE4.8 kmh NE -- 30.09 in1019.0 mb 0.00 in0.0 mm 0.00 in0.0 mm 0.17 in4.3 mm
09:42 PM 51.7°F10.9°C 42.8°F6.0°C 72% 2.0 mph NE3.2 kmh NE -- 30.09 in1019.0 mb 0.00 in0.0 mm 0.00 in0.0 mm 0.17 in4.3 mm
09:47 PM 51.5°F10.8°C 42.6°F5.9°C 72% 3.0 mph NE4.8 kmh NE -- 30.09 in1019.0 mb 0.00 in0.0 mm 0.00 in0.0 mm 0.17 in4.3 mm
09:53 PM 51.4°F10.8°C 42.6°F5.9°C 72% 1.0 mph ESE1.6 kmh ESE -- 30.09 in1019.0 mb 0.00 in0.0 mm 0.00 in0.0 mm 0.17 in4.3 mm
09:57 PM 51.4°F10.8°C 43.0°F6.1°C 73% 3.0 mph NNE4.8 kmh NNE -- 30.09 in1019.0 mb 0.00 in0.0 mm 0.00 in0.0 mm 0.17 in4.3 mm
10:02 PM 51.5°F10.8°C 43.0°F6.1°C 73% 2.0 mph NE3.2 kmh NE -- 30.09 in1019.0 mb 0.00 in0.0 mm 0.00 in0.0 mm 0.17 in4.3 mm
10:07 PM 51.5°F10.8°C 43.3°F6.3°C 74% 2.0 mph NE3.2 kmh NE -- 30.09 in1019.0 mb 0.00 in0.0 mm 0.00 in0.0 mm 0.17 in4.3 mm
10:13 PM 51.5°F10.8°C 43.0°F6.1°C 73% 3.0 mph NNE4.8 kmh NNE -- 30.09 in1019.0 mb 0.00 in0.0 mm 0.00 in0.0 mm 0.17 in4.3 mm
10:17 PM 51.6°F10.9°C 43.5°F6.4°C 74% 4.0 mph NNE6.4 kmh NNE -- 30.09 in1019.0 mb 0.00 in0.0 mm 0.00 in0.0 mm 0.17 in4.3 mm
10:22 PM 51.8°F11.0°C 43.3°F6.3°C 73% 2.0 mph NE3.2 kmh NE -- 30.09 in1019.0 mb 0.00 in0.0 mm 0.00 in0.0 mm 0.17 in4.3 mm
10:27 PM 51.8°F11.0°C 43.3°F6.3°C 73% 2.0 mph ENE3.2 kmh ENE -- 30.09 in1019.0 mb 0.00 in0.0 mm 0.00 in0.0 mm 0.17 in4.3 mm
10:32 PM 51.8°F11.0°C 43.0°F6.1°C 72% 4.0 mph NNE6.4 kmh NNE -- 30.09 in1019.0 mb 0.00 in0.0 mm 0.00 in0.0 mm 0.17 in4.3 mm
10:37 PM 51.9°F11.1°C 43.1°F6.2°C 72% 6.0 mph N9.7 kmh N -- 30.09 in1019.0 mb 0.00 in0.0 mm 0.00 in0.0 mm 0.17 in4.3 mm
10:42 PM 51.8°F11.0°C 43.3°F6.3°C 73% 6.0 mph NNE9.7 kmh NNE -- 30.09 in1019.0 mb 0.00 in0.0 mm 0.00 in0.0 mm 0.17 in4.3 mm
10:47 PM 51.9°F11.1°C 43.5°F6.4°C 73% 3.0 mph NE4.8 kmh NE -- 30.09 in1019.0 mb 0.00 in0.0 mm 0.00 in0.0 mm 0.17 in4.3 mm
10:52 PM 52.0°F11.1°C 43.5°F6.4°C 73% 3.0 mph NE4.8 kmh NE -- 30.08 in1018.6 mb 0.00 in0.0 mm 0.00 in0.0 mm 0.17 in4.3 mm
10:57 PM 51.9°F11.1°C 43.5°F6.4°C 73% 3.0 mph NNE4.8 kmh NNE -- 30.08 in1018.6 mb 0.00 in0.0 mm 0.00 in0.0 mm 0.17 in4.3 mm
11:02 PM 51.9°F11.1°C 43.5°F6.4°C 73% 3.0 mph NE4.8 kmh NE -- 30.08 in1018.6 mb 0.00 in0.0 mm 0.00 in0.0 mm 0.17 in4.3 mm
11:07 PM 51.8°F11.0°C 43.7°F6.5°C 74% 3.0 mph NE4.8 kmh NE -- 30.07 in1018.3 mb 0.00 in0.0 mm 0.00 in0.0 mm 0.17 in4.3 mm
11:12 PM 51.8°F11.0°C 43.7°F6.5°C 74% 3.0 mph NNE4.8 kmh NNE -- 30.07 in1018.3 mb 0.00 in0.0 mm 0.00 in0.0 mm 0.17 in4.3 mm
11:17 PM 51.9°F11.1°C 43.9°F6.6°C 74% 3.0 mph N4.8 kmh N -- 30.08 in1018.6 mb 0.00 in0.0 mm 0.00 in0.0 mm 0.17 in4.3 mm
11:22 PM 51.9°F11.1°C 43.9°F6.6°C 74% 3.0 mph N4.8 kmh N -- 30.08 in1018.6 mb 0.00 in0.0 mm 0.00 in0.0 mm 0.17 in4.3 mm
11:27 PM 51.9°F11.1°C 43.9°F6.6°C 74% 6.0 mph NE9.7 kmh NE -- 30.08 in1018.6 mb 0.00 in0.0 mm 0.00 in0.0 mm 0.17 in4.3 mm
11:32 PM 52.0°F11.1°C 44.2°F6.8°C 75% 3.0 mph NNE4.8 kmh NNE -- 30.08 in1018.6 mb 0.00 in0.0 mm 0.00 in0.0 mm 0.17 in4.3 mm
11:37 PM 51.9°F11.1°C 44.2°F6.8°C 75% 6.0 mph N9.7 kmh N -- 30.08 in1018.6 mb 0.00 in0.0 mm 0.00 in0.0 mm 0.17 in4.3 mm
11:42 PM 52.1°F11.2°C 44.7°F7.1°C 76% 4.0 mph NNE6.4 kmh NNE -- 30.08 in1018.6 mb 0.00 in0.0 mm 0.00 in0.0 mm 0.17 in4.3 mm
11:47 PM 52.0°F11.1°C 44.6°F7.0°C 76% 5.0 mph N8.0 kmh N -- 30.08 in1018.6 mb 0.00 in0.0 mm 0.00 in0.0 mm 0.17 in4.3 mm
11:52 PM 52.2°F11.2°C 45.1°F7.3°C 77% 5.0 mph NNE8.0 kmh NNE -- 30.08 in1018.6 mb 0.00 in0.0 mm 0.00 in0.0 mm 0.13 in3.3 mm
11:57 PM 52.1°F11.2°C 45.1°F7.3°C 77% 4.0 mph N6.4 kmh N -- 30.08 in1018.6 mb 0.00 in0.0 mm 0.00 in0.0 mm 0.13 in3.3 mm